SBBR/BSB METAR and TAF weather

Enter ICAO airport designator
Station Type Date Time Source
SBBR METAR 2020/08/05 16:00 UTC NOAA

SBBR 051600Z 10014KT CAVOK 23/10 Q1026


Station Type Date Time Source
SBBR Decoded METAR 2020/08/05 16:00 UTC NOAA

Brasilia Aeroporto , Brazil (SBBR) 15-52S 047-56W 1061M
Aug 05, 2020 - 12:00 PM EDT / 2020.08.05 1600 UTC
Wind: from the E (100 degrees) at 16 MPH (14 KT):0
Visibility: greater than 7 mile(s):0
Temperature: 73 F (23 C)
Dew Point: 50 F (10 C)
Relative Humidity: 43%
Pressure (altimeter): 30.30 in. Hg (1026 hPa)
ob: SBBR 051600Z 10014KT CAVOK 23/10 Q1026
cycle: 16

Station Type Date Time Source
SBBR TAF 2020/08/05 18:49 UTC NOAA

TAF SBBR 051500Z 0518/0618 09013KT 9999 SCT025 TN13/0608Z TX26/0618Z
BECMG 0518/0520 09008KT CAVOK
RMK PER

Example: see airport list